createdAt,value
2023-02-17T00:00:05.488Z,100284.53
2023-02-17T00:02:33.431Z,100284.28
2023-02-17T00:05:01.129Z,100288.44
2023-02-17T00:07:32.007Z,100279.19
2023-02-17T00:09:59.647Z,100273.53
2023-02-17T00:12:27.297Z,100276.72
2023-02-17T00:14:55.159Z,100281.59
2023-02-17T00:17:22.857Z,100280.31
2023-02-17T00:19:50.841Z,100275.63
2023-02-17T00:22:18.419Z,100271.84
2023-02-17T00:24:46.085Z,100265.31
2023-02-17T00:27:13.886Z,100257.09
2023-02-17T00:29:41.936Z,100253.25
2023-02-17T00:32:10.891Z,100244.31
2023-02-17T00:34:38.598Z,100246.00
2023-02-17T00:37:06.304Z,100238.66
2023-02-17T00:39:34.350Z,100229.59
2023-02-17T00:42:02.018Z,100228.53
2023-02-17T00:44:29.724Z,100233.84
2023-02-17T00:46:57.476Z,100237.34
2023-02-17T00:49:25.353Z,100238.94
2023-02-17T00:51:54.656Z,100234.47
2023-02-17T00:54:22.303Z,100223.72
2023-02-17T00:56:50.288Z,100222.63
2023-02-17T00:59:17.905Z,100226.03
2023-02-17T01:01:45.624Z,100221.44
2023-02-17T01:04:13.286Z,100213.13
2023-02-17T01:06:40.918Z,100224.38
2023-02-17T01:09:08.949Z,100216.41
2023-02-17T01:11:36.609Z,100206.63
2023-02-17T01:14:06.373Z,100206.38
2023-02-17T01:16:35.389Z,100213.38
2023-02-17T01:19:03.006Z,100210.72
2023-02-17T01:21:30.608Z,100216.06
2023-02-17T01:23:58.321Z,100214.25
2023-02-17T01:26:25.910Z,100207.97
2023-02-17T01:28:53.530Z,100201.78
2023-02-17T01:31:21.256Z,100207.25
2023-02-17T01:33:48.906Z,100204.69
2023-02-17T01:36:16.540Z,100197.41
2023-02-17T01:38:44.246Z,100183.13
2023-02-17T01:41:11.922Z,100184.00
2023-02-17T01:43:39.543Z,100175.03
2023-02-17T01:46:07.740Z,100175.03
2023-02-17T01:48:35.463Z,100166.19
2023-02-17T01:51:03.083Z,100160.03
2023-02-17T01:53:30.744Z,100164.38
2023-02-17T01:55:58.376Z,100158.09
2023-02-17T01:58:26.740Z,100159.78
2023-02-17T02:00:54.431Z,100164.16
2023-02-17T02:03:22.006Z,100158.72
2023-02-17T02:05:49.772Z,100157.63
2023-02-17T02:08:17.486Z,100147.81
2023-02-17T02:10:45.481Z,100152.31
2023-02-17T02:13:13.104Z,100152.31
2023-02-17T02:15:40.747Z,100150.47
2023-02-17T02:18:08.737Z,100147.81
2023-02-17T02:20:36.629Z,100151.59
2023-02-17T02:23:04.610Z,100145.50
2023-02-17T02:25:32.238Z,100149.38
2023-02-17T02:27:59.821Z,100154.00
2023-02-17T02:30:27.713Z,100140.69
2023-02-17T02:32:55.351Z,100147.91
2023-02-17T02:35:23.346Z,100135.56
2023-02-17T02:37:50.954Z,100145.38
2023-02-17T02:40:18.553Z,100146.00
2023-02-17T02:42:47.831Z,100151.06
2023-02-17T02:45:15.455Z,100144.53
2023-02-17T02:47:43.465Z,100154.97
2023-02-17T02:50:11.082Z,100140.59
2023-02-17T02:52:38.713Z,100140.34
2023-02-17T02:55:06.529Z,100142.88
2023-02-17T02:57:34.136Z,100140.94
2023-02-17T03:00:02.131Z,100136.34
2023-02-17T03:02:29.766Z,100124.72
2023-02-17T03:04:57.388Z,100117.47
2023-02-17T03:07:25.026Z,100120.16
2023-02-17T03:09:52.654Z,100110.31
2023-02-17T03:12:20.253Z,100098.84
2023-02-17T03:14:47.857Z,100092.53
2023-02-17T03:17:15.431Z,100087.94
2023-02-17T03:19:45.624Z,100090.38
2023-02-17T03:22:13.205Z,100091.81
2023-02-17T03:24:40.782Z,100095.94
2023-02-17T03:27:08.716Z,100089.50
2023-02-17T03:29:36.339Z,100101.75
2023-02-17T03:32:04.099Z,100094.47
2023-02-17T03:34:31.648Z,100109.25
2023-02-17T03:36:59.601Z,100111.66
2023-02-17T03:39:27.615Z,100109.63
2023-02-17T03:41:55.187Z,100103.19
2023-02-17T03:44:22.809Z,100112.88
2023-02-17T03:46:50.535Z,100110.97
2023-02-17T03:49:18.964Z,100111.69
2023-02-17T03:51:46.546Z,100102.72
2023-02-17T03:54:14.084Z,100101.75
2023-02-17T03:56:41.810Z,100104.31
2023-02-17T03:59:09.386Z,100098.97
2023-02-17T04:01:37.342Z,100099.56
2023-02-17T04:04:04.960Z,100094.13
2023-02-17T04:06:32.561Z,100097.63
2023-02-17T04:09:00.186Z,100101.00
2023-02-17T04:11:28.148Z,100103.69
2023-02-17T04:13:56.087Z,100121.50
2023-02-17T04:16:23.629Z,100111.66
2023-02-17T04:18:51.172Z,100114.22
2023-02-17T04:21:18.763Z,100119.44
2023-02-17T04:23:46.306Z,100123.69
2023-02-17T04:26:14.259Z,100117.38
2023-02-17T04:28:41.897Z,100119.06
2023-02-17T04:31:09.884Z,100114.56
2023-02-17T04:33:38.120Z,100103.91
2023-02-17T04:36:06.056Z,100094.97
2023-02-17T04:38:34.306Z,100084.31
2023-02-17T04:41:01.904Z,100088.78
2023-02-17T04:43:29.536Z,100103.91
2023-02-17T04:45:57.157Z,100089.63
2023-02-17T04:48:24.757Z,100085.03
2023-02-17T04:50:52.755Z,100069.84
2023-02-17T04:53:20.328Z,100070.72
2023-02-17T04:55:47.902Z,100072.66
2023-02-17T04:58:15.535Z,100090.34
2023-02-17T05:00:43.100Z,100095.69
2023-02-17T05:03:11.048Z,100085.25
2023-02-17T05:05:38.717Z,100078.97
2023-02-17T05:08:06.255Z,100069.25
2023-02-17T05:10:33.817Z,100069.41
2023-02-17T05:13:01.488Z,100066.72
2023-02-17T05:15:29.907Z,100050.84
2023-02-17T05:17:57.515Z,100060.81
2023-02-17T05:20:25.116Z,100055.47
2023-02-17T05:22:52.731Z,100054.50
2023-02-17T05:25:20.324Z,100066.72
2023-02-17T05:27:48.275Z,100071.91
2023-02-17T05:30:15.908Z,100069.25
2023-02-17T05:32:43.513Z,100077.13
2023-02-17T05:35:11.165Z,100085.03
2023-02-17T05:37:39.227Z,100085.84
2023-02-17T05:40:07.180Z,100080.53
2023-02-17T05:42:34.822Z,100084.06
2023-02-17T05:45:02.420Z,100075.06
2023-02-17T05:47:30.293Z,100075.78
2023-02-17T05:49:57.993Z,100074.81
2023-02-17T05:52:25.936Z,100067.78
2023-02-17T05:54:53.572Z,100057.97
2023-02-17T05:57:21.348Z,100065.88
2023-02-17T05:59:50.801Z,100072.16
2023-02-17T06:02:18.400Z,100065.00
2023-02-17T06:04:46.547Z,100066.69
2023-02-17T06:07:14.287Z,100064.03
2023-02-17T06:09:41.919Z,100072.91
2023-02-17T06:12:10.102Z,100070.34
2023-02-17T06:14:37.745Z,100060.53
2023-02-17T06:17:05.711Z,100050.69
2023-02-17T06:19:33.498Z,100036.53
2023-02-17T06:22:01.469Z,100027.69
2023-02-17T06:24:29.291Z,100028.53
2023-02-17T06:26:56.985Z,100044.53
2023-02-17T06:29:24.933Z,100036.41
2023-02-17T06:31:52.617Z,100031.06
2023-02-17T06:34:20.408Z,100041.72
2023-02-17T06:36:48.357Z,100047.06
2023-02-17T06:39:15.978Z,100054.94
2023-02-17T06:41:44.098Z,100046.09
2023-02-17T06:44:12.077Z,100047.81
2023-02-17T06:46:39.706Z,100058.59
2023-02-17T06:49:07.392Z,100067.41
2023-02-17T06:51:35.071Z,100060.28
2023-02-17T06:54:02.755Z,100048.63
2023-02-17T06:56:30.557Z,100053.97
2023-02-17T06:58:58.208Z,100066.47
2023-02-17T07:01:26.568Z,100057.59
2023-02-17T07:03:54.245Z,100058.59
2023-02-17T07:06:23.354Z,100066.59
2023-02-17T07:08:52.461Z,100071.81
2023-02-17T07:11:20.172Z,100053.97
2023-02-17T07:13:47.885Z,100045.97
2023-02-17T07:16:15.599Z,100047.66
2023-02-17T07:18:43.707Z,100041.34
2023-02-17T07:21:11.354Z,100054.69
2023-02-17T07:23:39.695Z,100056.41
2023-02-17T07:26:08.658Z,100044.16
2023-02-17T07:28:36.767Z,100072.16
2023-02-17T07:31:04.941Z,100057.16
2023-02-17T07:33:32.822Z,100067.59
2023-02-17T07:36:00.573Z,100065.16
2023-02-17T07:38:28.617Z,100068.69
2023-02-17T07:40:56.413Z,100062.16
2023-02-17T07:43:24.502Z,100053.91
2023-02-17T07:45:52.201Z,100051.72
2023-02-17T07:48:20.034Z,100056.06
2023-02-17T07:50:49.177Z,100065.38
2023-02-17T07:53:16.852Z,100059.59
2023-02-17T07:55:44.943Z,100057.66
2023-02-17T07:58:12.631Z,100060.06
2023-02-17T08:00:40.479Z,100063.22
2023-02-17T08:03:11.067Z,100057.66
2023-02-17T08:05:38.857Z,100061.84
2023-02-17T08:08:24.822Z,100052.91
2023-02-17T08:11:10.382Z,100049.28
2023-02-17T08:13:38.280Z,100041.13
2023-02-17T08:16:06.257Z,100053.25
2023-02-17T08:18:36.764Z,100040.63
2023-02-17T08:21:04.954Z,100043.06
2023-02-17T08:23:32.880Z,100043.66
2023-02-17T08:26:00.830Z,100037.22
2023-02-17T08:28:28.847Z,100041.34
2023-02-17T08:30:57.281Z,100037.59
2023-02-17T08:33:24.966Z,100040.88
2023-02-17T08:35:52.918Z,100035.16
2023-02-17T08:38:20.794Z,100034.06
2023-02-17T08:40:48.566Z,100026.66
2023-02-17T08:43:16.964Z,100028.94
2023-02-17T08:45:44.842Z,100026.97
2023-02-17T08:48:12.670Z,100011.56
2023-02-17T08:50:40.520Z,100013.84
2023-02-17T08:53:08.725Z,100010.06
2023-02-17T08:55:48.490Z,100014.03
2023-02-17T08:58:17.216Z,100003.94
2023-02-17T09:00:45.017Z,99990.34
2023-02-17T09:03:12.892Z,100003.31
2023-02-17T09:05:41.383Z,100018.94
2023-02-17T09:08:09.363Z,100006.19
2023-02-17T09:10:37.182Z,100023.75
2023-02-17T09:13:05.253Z,100041.31
2023-02-17T09:15:33.102Z,100039.38
2023-02-17T09:18:01.297Z,100022.25
2023-02-17T09:20:29.208Z,100032.69
2023-02-17T09:22:57.085Z,100029.63
2023-02-17T09:25:25.063Z,100044.13
2023-02-17T09:27:53.020Z,100044.44
2023-02-17T09:30:21.506Z,100042.94
2023-02-17T09:32:49.254Z,100037.22
2023-02-17T09:35:17.221Z,100036.69
2023-02-17T09:37:45.104Z,100022.81
2023-02-17T09:40:12.993Z,100023.97
2023-02-17T09:42:41.732Z,100027.91
2023-02-17T09:45:11.887Z,100023.72
2023-02-17T09:47:40.891Z,100039.28
2023-02-17T09:50:08.748Z,100030.84
2023-02-17T09:52:37.430Z,100000.91
2023-02-17T09:55:05.808Z,100019.03
2023-02-17T09:57:34.064Z,100008.66
2023-02-17T10:00:01.923Z,100007.97
2023-02-17T10:02:30.124Z,100008.41
2023-02-17T10:04:58.008Z,100013.22
2023-02-17T10:07:26.181Z,100013.50
2023-02-17T10:09:54.264Z,100012.25
2023-02-17T10:12:22.126Z,100002.81
2023-02-17T10:14:50.066Z,99996.91
2023-02-17T10:17:18.419Z,100008.03
2023-02-17T10:19:46.823Z,100011.16
2023-02-17T10:22:14.558Z,100016.94
2023-02-17T10:24:42.471Z,100033.28
2023-02-17T10:27:10.604Z,100036.38
2023-02-17T10:29:38.450Z,100051.84
2023-02-17T10:32:06.892Z,100050.47
2023-02-17T10:34:34.767Z,100056.97
2023-02-17T10:37:02.642Z,100046.50
2023-02-17T10:39:31.721Z,100054.13
2023-02-17T10:41:59.644Z,100061.75
2023-02-17T10:44:28.196Z,100036.97
2023-02-17T10:46:56.178Z,100043.84
2023-02-17T10:49:24.071Z,100042.03
2023-02-17T10:51:52.137Z,100043.72
2023-02-17T10:54:20.087Z,100018.03
2023-02-17T10:56:47.854Z,100029.56
2023-02-17T10:59:15.715Z,100033.97
2023-02-17T11:01:43.671Z,100016.34
2023-02-17T11:04:13.867Z,100021.28
2023-02-17T11:06:41.963Z,100017.19
2023-02-17T11:09:12.586Z,100030.75
2023-02-17T11:11:40.468Z,100019.72
2023-02-17T11:14:08.301Z,100013.38
2023-02-17T11:16:36.464Z,100004.50
2023-02-17T11:19:04.278Z,99995.34
2023-02-17T11:21:33.825Z,100014.09
2023-02-17T11:24:02.488Z,100003.50
2023-02-17T11:26:30.402Z,99984.88
2023-02-17T11:28:58.441Z,99982.06
2023-02-17T11:31:26.493Z,99986.31
2023-02-17T11:33:56.865Z,99984.00
2023-02-17T11:36:25.052Z,99990.91
2023-02-17T11:38:53.102Z,99972.47
2023-02-17T11:41:21.077Z,99971.75
2023-02-17T11:43:49.766Z,99985.75
2023-02-17T11:46:18.316Z,99987.28
2023-02-17T11:48:46.228Z,99985.97
2023-02-17T11:51:14.027Z,99985.91
2023-02-17T11:53:42.261Z,99982.91
2023-02-17T11:56:10.164Z,99985.91
2023-02-17T11:58:38.556Z,99969.47
2023-02-17T12:01:06.615Z,99987.69
2023-02-17T12:03:36.691Z,100003.84
2023-02-17T12:06:05.318Z,99997.13
2023-02-17T12:08:33.437Z,99989.06
2023-02-17T12:11:01.183Z,99979.25
2023-02-17T12:13:29.217Z,99984.63
2023-02-17T12:15:57.598Z,99971.94
2023-02-17T12:18:25.454Z,99986.59
2023-02-17T12:20:53.326Z,99977.72
2023-02-17T12:23:21.707Z,99965.19
2023-02-17T12:25:49.614Z,99966.78
2023-02-17T12:28:17.886Z,99966.09
2023-02-17T12:30:46.526Z,99963.97
2023-02-17T12:33:14.483Z,99958.00
2023-02-17T12:35:42.278Z,99958.38
2023-02-17T12:38:10.353Z,99982.41
2023-02-17T12:40:38.213Z,99956.06
2023-02-17T12:43:06.117Z,99968.56
2023-02-17T12:45:34.004Z,99959.53
2023-02-17T12:48:02.303Z,99972.84
2023-02-17T12:50:30.487Z,99965.44
2023-02-17T12:52:58.451Z,99957.97
2023-02-17T12:55:27.453Z,99963.06
2023-02-17T12:57:58.405Z,99962.81
2023-02-17T13:00:26.946Z,99944.66
2023-02-17T13:02:54.796Z,99945.66
2023-02-17T13:05:22.636Z,99954.00
2023-02-17T13:07:51.581Z,99952.00
2023-02-17T13:10:19.679Z,99963.72
2023-02-17T13:12:48.010Z,99977.97
2023-02-17T13:15:15.975Z,99978.94
2023-02-17T13:17:43.737Z,99970.22
2023-02-17T13:20:11.532Z,99969.38
2023-02-17T13:22:39.500Z,99975.91
2023-02-17T13:25:07.686Z,99980.25
2023-02-17T13:27:35.581Z,99991.25
2023-02-17T13:30:03.699Z,99978.03
2023-02-17T13:32:31.923Z,99978.84
2023-02-17T13:34:59.774Z,99981.84
2023-02-17T13:37:29.290Z,99984.66
2023-02-17T13:39:57.249Z,99985.66
2023-02-17T13:42:25.080Z,100001.72
2023-02-17T13:44:53.203Z,99994.56
2023-02-17T13:47:21.107Z,99997.38
2023-02-17T13:49:50.881Z,99987.63
2023-02-17T13:52:18.989Z,99998.50
2023-02-17T13:54:46.937Z,100001.31
2023-02-17T13:57:15.304Z,100013.03
2023-02-17T13:59:43.331Z,100014.88
2023-02-17T14:02:11.435Z,100006.97
2023-02-17T14:04:39.488Z,100014.34
2023-02-17T14:07:07.547Z,99992.03
2023-02-17T14:09:35.720Z,100009.97
2023-02-17T14:12:03.545Z,100015.31
2023-02-17T14:14:31.786Z,100024.50
2023-02-17T14:17:00.041Z,100028.16
2023-02-17T14:19:27.773Z,100045.38
2023-02-17T14:21:56.255Z,100049.19
2023-02-17T14:24:24.141Z,100058.34
2023-02-17T14:26:54.092Z,100066.13
2023-02-17T14:29:22.052Z,100065.81
2023-02-17T14:31:50.159Z,100074.97
2023-02-17T14:34:18.110Z,100080.84
2023-02-17T14:36:46.231Z,100086.75
2023-02-17T14:39:14.877Z,100078.25
2023-02-17T14:41:42.771Z,100083.84
2023-02-17T14:44:10.700Z,100089.41
2023-02-17T14:46:38.814Z,100078.56
2023-02-17T14:49:06.775Z,100086.25
2023-02-17T14:51:35.304Z,100076.06
2023-02-17T14:54:03.149Z,100088.13
2023-02-17T14:56:31.121Z,100096.53
2023-02-17T14:58:59.474Z,100094.53
2023-02-17T15:01:27.441Z,100085.09
2023-02-17T15:03:55.612Z,100086.34
2023-02-17T15:06:23.738Z,100099.13
2023-02-17T15:08:51.666Z,100104.84
2023-02-17T15:11:19.644Z,100106.19
2023-02-17T15:13:47.554Z,100102.22
2023-02-17T15:16:16.849Z,100107.97
2023-02-17T15:18:44.791Z,100105.69
2023-02-17T15:21:13.487Z,100111.41
2023-02-17T15:23:41.849Z,100105.59
2023-02-17T15:26:09.773Z,100103.31
2023-02-17T15:28:38.275Z,100101.75
2023-02-17T15:31:06.266Z,100101.16
2023-02-17T15:33:34.144Z,100111.00
2023-02-17T15:36:02.530Z,100117.44
2023-02-17T15:38:30.261Z,100109.72
2023-02-17T15:40:59.364Z,100117.94
2023-02-17T15:43:27.749Z,100135.06
2023-02-17T15:45:55.679Z,100128.19
2023-02-17T15:48:23.769Z,100149.66
2023-02-17T15:50:51.719Z,100162.28
2023-02-17T15:53:19.730Z,100158.88
2023-02-17T15:55:47.561Z,100167.25
2023-02-17T15:58:17.043Z,100158.66
2023-02-17T16:00:46.215Z,100169.59
2023-02-17T16:03:14.135Z,100176.00
2023-02-17T16:05:42.654Z,100178.94
2023-02-17T16:08:10.505Z,100171.31
2023-02-17T16:10:39.811Z,100168.88
2023-02-17T16:13:08.427Z,100167.28
2023-02-17T16:15:37.619Z,100183.44
2023-02-17T16:18:05.544Z,100179.19
2023-02-17T16:20:34.942Z,100182.69
2023-02-17T16:23:03.171Z,100180.63
2023-02-17T16:25:31.373Z,100190.00
2023-02-17T16:27:59.582Z,100200.13
2023-02-17T16:30:27.872Z,100204.28
2023-02-17T16:32:55.826Z,100208.25
2023-02-17T16:35:23.778Z,100215.91
2023-02-17T16:37:51.557Z,100205.00
2023-02-17T16:40:19.392Z,100205.59
2023-02-17T16:42:47.371Z,100212.47
2023-02-17T16:45:15.173Z,100196.34
2023-02-17T16:47:43.165Z,100207.63
2023-02-17T16:50:11.876Z,100211.00
2023-02-17T16:52:39.810Z,100230.28
2023-02-17T16:55:07.743Z,100232.84
2023-02-17T16:57:35.798Z,100247.88
2023-02-17T17:00:04.741Z,100242.44
2023-02-17T17:02:32.739Z,100249.34
2023-02-17T17:05:00.816Z,100255.50
2023-02-17T17:07:28.995Z,100252.00
2023-02-17T17:10:15.512Z,100259.06
2023-02-17T17:12:44.737Z,100263.53
2023-02-17T17:15:12.678Z,100269.72
2023-02-17T17:17:40.674Z,100280.41
2023-02-17T17:20:09.119Z,100282.09
2023-02-17T17:22:37.055Z,100281.13
2023-02-17T17:25:05.100Z,100283.78
2023-02-17T17:27:33.056Z,100281.84
2023-02-17T17:30:01.131Z,100284.41
2023-02-17T17:32:29.173Z,100291.53
2023-02-17T17:34:57.303Z,100296.78
2023-02-17T17:37:25.438Z,100294.09
2023-02-17T17:39:53.470Z,100285.97
2023-02-17T17:42:21.901Z,100291.31
2023-02-17T17:44:49.807Z,100295.69
2023-02-17T17:47:24.766Z,100300.91
2023-02-17T17:49:57.440Z,100302.44
2023-02-17T17:52:26.058Z,100305.00
2023-02-17T17:54:54.027Z,100311.94
2023-02-17T17:57:22.857Z,100302.94
2023-02-17T17:59:50.710Z,100306.59
2023-02-17T18:02:18.765Z,100312.78
2023-02-17T18:04:47.255Z,100309.25
2023-02-17T18:07:15.235Z,100315.56
2023-02-17T18:09:43.110Z,100328.94
2023-02-17T18:12:11.133Z,100328.22
2023-02-17T18:14:41.332Z,100326.50
2023-02-17T18:17:09.811Z,100330.13
2023-02-17T18:19:37.906Z,100340.00
2023-02-17T18:22:05.826Z,100332.81
2023-02-17T18:24:33.815Z,100338.28
2023-02-17T18:27:01.846Z,100333.78
2023-02-17T18:29:30.303Z,100345.31
2023-02-17T18:31:59.405Z,100343.63
2023-02-17T18:34:27.670Z,100350.78
2023-02-17T18:36:55.855Z,100352.75
2023-02-17T18:39:23.663Z,100346.69
2023-02-17T18:41:52.485Z,100355.63
2023-02-17T18:44:20.335Z,100365.72
2023-02-17T18:46:48.282Z,100370.44
2023-02-17T18:49:16.421Z,100373.38
2023-02-17T18:51:44.573Z,100376.28
2023-02-17T18:54:13.106Z,100375.31
2023-02-17T18:56:41.190Z,100377.13
2023-02-17T18:59:09.683Z,100389.38
2023-02-17T19:01:39.445Z,100398.25
2023-02-17T19:04:07.556Z,100382.97
2023-02-17T19:06:36.038Z,100388.19
2023-02-17T19:09:04.568Z,100381.88
2023-02-17T19:11:32.508Z,100387.06
2023-02-17T19:14:00.293Z,100381.72
2023-02-17T19:16:28.715Z,100375.78
2023-02-17T19:18:57.193Z,100384.03
2023-02-17T19:21:25.685Z,100395.97
2023-02-17T19:23:53.654Z,100384.66
2023-02-17T19:26:21.640Z,100382.72
2023-02-17T19:28:49.746Z,100393.28
2023-02-17T19:31:17.984Z,100384.31
2023-02-17T19:33:46.146Z,100387.59
2023-02-17T19:36:14.184Z,100384.16
2023-02-17T19:38:41.974Z,100378.00
2023-02-17T19:41:10.388Z,100374.72
2023-02-17T19:43:39.076Z,100379.44
2023-02-17T19:46:07.625Z,100379.44
2023-02-17T19:48:35.887Z,100375.69
2023-02-17T19:51:03.742Z,100370.09
2023-02-17T19:53:33.405Z,100382.47
2023-02-17T19:56:01.838Z,100375.22
2023-02-17T19:58:29.705Z,100370.69
2023-02-17T20:00:57.678Z,100387.69
2023-02-17T20:03:25.654Z,100381.38
2023-02-17T20:05:54.019Z,100390.09
2023-02-17T20:08:22.366Z,100399.81
2023-02-17T20:10:50.327Z,100404.22
2023-02-17T20:13:18.208Z,100394.38
2023-02-17T20:15:46.147Z,100395.09
2023-02-17T20:18:14.563Z,100395.22
2023-02-17T20:20:46.876Z,100405.75
2023-02-17T20:23:14.874Z,100393.28
2023-02-17T20:25:42.799Z,100383.47
2023-02-17T20:28:11.235Z,100385.00
2023-02-17T20:30:39.719Z,100380.63
2023-02-17T20:33:08.021Z,100387.69
2023-02-17T20:35:37.121Z,100374.47
2023-02-17T20:38:05.375Z,100393.28
2023-02-17T20:40:33.361Z,100394.25
2023-02-17T20:43:01.734Z,100385.38
2023-02-17T20:45:30.122Z,100388.91
2023-02-17T20:47:58.067Z,100390.59
2023-02-17T20:50:26.419Z,100391.59
2023-02-17T20:52:54.221Z,100398.63
2023-02-17T20:55:22.556Z,100401.28
2023-02-17T20:57:50.835Z,100401.28
2023-02-17T21:00:18.778Z,100404.94
2023-02-17T21:02:47.035Z,100412.06
2023-02-17T21:05:14.855Z,100418.66
2023-02-17T21:07:42.959Z,100417.44
2023-02-17T21:10:11.285Z,100417.78
2023-02-17T21:12:39.514Z,100426.78
2023-02-17T21:15:07.494Z,100422.41
2023-02-17T21:17:35.398Z,100422.75
2023-02-17T21:20:04.184Z,100447.13
2023-02-17T21:22:32.060Z,100433.53
2023-02-17T21:24:59.939Z,100435.47
2023-02-17T21:27:27.799Z,100430.13
2023-02-17T21:29:55.785Z,100441.06
2023-02-17T21:32:23.906Z,100422.69
2023-02-17T21:34:52.302Z,100428.75
2023-02-17T21:37:20.241Z,100425.09
2023-02-17T21:39:48.110Z,100427.34
2023-02-17T21:42:37.460Z,100422.47
2023-02-17T21:45:04.709Z,100437.22
2023-02-17T21:47:32.682Z,100435.66
2023-02-17T21:50:00.738Z,100433.22
2023-02-17T21:52:28.694Z,100442.28
2023-02-17T21:54:57.077Z,100434.28
2023-02-17T21:57:25.491Z,100429.06
2023-02-17T21:59:53.699Z,100422.75
2023-02-17T22:02:21.430Z,100425.56
2023-02-17T22:04:49.399Z,100428.09
2023-02-17T22:07:17.307Z,100434.28
2023-02-17T22:09:45.186Z,100436.09
2023-02-17T22:12:13.109Z,100443.03
2023-02-17T22:14:41.041Z,100444.50
2023-02-17T22:17:09.178Z,100446.94
2023-02-17T22:19:37.333Z,100452.78
2023-02-17T22:22:05.753Z,100447.19
2023-02-17T22:24:34.025Z,100452.53
2023-02-17T22:27:02.024Z,100441.16
2023-02-17T22:29:29.874Z,100445.97
2023-02-17T22:31:58.003Z,100448.34
2023-02-17T22:34:28.529Z,100450.50
2023-02-17T22:36:56.406Z,100450.84
2023-02-17T22:39:24.664Z,100450.22
2023-02-17T22:41:52.696Z,100451.19
2023-02-17T22:44:20.612Z,100453.84
2023-02-17T22:46:48.775Z,100446.59
2023-02-17T22:49:16.682Z,100447.09
2023-02-17T22:51:44.435Z,100450.28
2023-02-17T22:54:12.463Z,100445.59
2023-02-17T22:56:40.341Z,100456.88
2023-02-17T22:59:08.473Z,100453.22
2023-02-17T23:01:36.557Z,100441.31
2023-02-17T23:04:04.411Z,100449.03
2023-02-17T23:06:32.395Z,100441.50
2023-02-17T23:09:00.288Z,100444.59
2023-02-17T23:11:46.033Z,100443.16
2023-02-17T23:14:13.799Z,100433.56
2023-02-17T23:16:41.586Z,100432.94
2023-02-17T23:19:09.479Z,100435.69
2023-02-17T23:21:37.508Z,100442.09
2023-02-17T23:24:05.515Z,100449.38
2023-02-17T23:26:33.363Z,100446.81
2023-02-17T23:29:01.026Z,100448.75
2023-02-17T23:31:28.873Z,100441.81
2023-02-17T23:33:56.613Z,100434.78
2023-02-17T23:36:24.699Z,100443.66
2023-02-17T23:38:52.542Z,100449.81
2023-02-17T23:41:20.206Z,100433.09
2023-02-17T23:43:48.286Z,100428.72
2023-02-17T23:46:15.912Z,100439.38
2023-02-17T23:48:43.938Z,100429.69
2023-02-17T23:51:11.562Z,100433.19
2023-02-17T23:53:39.213Z,100431.41
2023-02-17T23:56:07.303Z,100416.28
2023-02-17T23:58:35.193Z,100418.94
